Time;durP1;ratioP1;P1;durP2;ratioP2;P2;SDS_P1;SDS_P2;PMS_P1;PMS_P2;Temp;Humidity;BMP_temperature;BMP_pressure;BME280_temperature;BME280_humidity;BME280_pressure;Samples;Min_cycle;Max_cycle;Signal;HPM_P1;HPM_P2
2023/04/05 00:01:27;;;;;;;9.07;3.80;;;2.20;99.90;;;;;;5003093;28;20144;-55
2023/04/05 00:03:57;;;;;;;6.55;3.75;;;2.10;99.90;;;;;;5003619;28;20180;-52
2023/04/05 00:06:27;;;;;;;5.75;3.85;;;2.10;99.90;;;;;;5007822;28;20061;-53
2023/04/05 00:09:03;;;;;;;5.63;3.60;;;2.10;99.90;;;;;;5006297;28;20042;-52
2023/04/05 00:11:32;;;;;;;7.97;4.05;;;2.00;99.90;;;;;;5007339;28;20049;-51
2023/04/05 00:14:00;;;;;;;8.88;4.00;;;2.00;99.90;;;;;;4967467;28;20464;-54
2023/04/05 00:16:28;;;;;;;5.95;3.50;;;2.00;99.90;;;;;;5003153;28;20129;-52
2023/04/05 00:18:56;;;;;;;6.75;4.20;;;1.90;99.90;;;;;;5014968;28;20041;-51
2023/04/05 00:21:23;;;;;;;5.35;3.80;;;1.90;99.90;;;;;;5010939;28;20058;-51
2023/04/05 00:23:53;;;;;;;7.28;3.80;;;1.90;99.90;;;;;;5013229;28;20033;-53
2023/04/05 00:26:20;;;;;;;9.05;4.22;;;1.80;99.90;;;;;;5012403;28;20131;-55
2023/04/05 00:28:47;;;;;;;6.85;4.03;;;1.80;99.90;;;;;;5006968;28;20071;-55
2023/04/05 00:31:13;;;;;;;6.38;3.80;;;1.80;99.90;;;;;;4987619;28;20058;-53
2023/04/05 00:33:41;;;;;;;6.00;3.90;;;1.80;99.90;;;;;;5009527;28;20369;-55
2023/04/05 00:36:09;;;;;;;6.90;4.00;;;1.70;99.90;;;;;;5012309;28;20046;-55
2023/04/05 00:38:35;;;;;;;10.95;4.60;;;1.70;99.90;;;;;;5011615;28;20087;-54
2023/04/05 00:41:00;;;;;;;7.07;4.35;;;1.70;99.90;;;;;;4993226;28;20119;-55
2023/04/05 00:43:26;;;;;;;8.48;4.63;;;1.70;99.90;;;;;;5014540;28;20056;-51
2023/04/05 00:45:52;;;;;;;7.10;4.00;;;1.70;99.90;;;;;;5010813;28;20045;-52
2023/04/05 00:48:18;;;;;;;7.82;4.35;;;1.60;99.90;;;;;;5005072;28;20044;-55
2023/04/05 00:50:47;;;;;;;7.35;4.18;;;1.60;99.90;;;;;;5005826;28;20041;-51
2023/04/05 00:53:14;;;;;;;8.15;4.57;;;1.60;99.90;;;;;;5006708;28;20084;-52
2023/04/05 00:55:40;;;;;;;8.68;4.28;;;1.60;99.90;;;;;;5008857;28;20527;-53
2023/04/05 00:58:08;;;;;;;8.93;4.25;;;1.50;99.90;;;;;;5007811;28;20085;-53
2023/04/05 01:00:37;;;;;;;6.82;4.18;;;1.50;99.90;;;;;;5008230;28;20050;-51
2023/04/05 01:03:05;;;;;;;9.38;4.72;;;1.50;99.90;;;;;;5000973;28;20061;-55
2023/04/05 01:05:34;;;;;;;6.38;4.50;;;1.50;99.90;;;;;;5008122;28;20133;-52
2023/04/05 01:08:36;;;;;;;9.25;4.80;;;1.40;99.90;;;;;;5004847;28;20052;-54
2023/04/05 01:11:04;;;;;;;7.95;4.85;;;1.40;99.90;;;;;;5002344;28;20050;-53
2023/04/05 01:13:30;;;;;;;8.00;4.65;;;1.40;99.90;;;;;;4990642;28;20097;-54
2023/04/05 01:15:56;;;;;;;7.25;4.47;;;1.30;99.90;;;;;;5003842;28;20532;-52
2023/04/05 01:18:23;;;;;;;7.28;4.43;;;1.30;99.90;;;;;;4983182;28;20045;-53
2023/04/05 01:21:17;;;;;;;6.82;3.97;;;1.30;99.90;;;;;;5001291;28;20049;-53
2023/04/05 01:23:58;;;;;;;7.90;4.72;;;1.30;99.90;;;;;;5001151;28;20038;-52
2023/04/05 01:26:30;;;;;;;7.15;4.40;;;1.20;99.90;;;;;;5000445;28;20054;-54
2023/04/05 01:29:22;;;;;;;7.85;4.38;;;1.20;99.90;;;;;;4998695;28;20046;-55
2023/04/05 01:32:13;;;;;;;8.10;4.13;;;1.10;99.90;;;;;;4995769;28;20057;-53
2023/04/05 01:34:43;;;;;;;12.38;4.82;;;1.10;99.90;;;;;;5001462;28;20132;-56
2023/04/05 01:37:13;;;;;;;8.32;4.53;;;1.10;99.90;;;;;;5002381;28;20057;-55
2023/04/05 01:39:40;;;;;;;6.78;4.13;;;1.00;99.90;;;;;;5000789;28;20057;-55
2023/04/05 01:42:06;;;;;;;8.43;5.13;;;1.00;99.90;;;;;;5001724;28;20050;-51
2023/04/05 01:44:31;;;;;;;7.43;4.43;;;1.00;99.90;;;;;;5004351;28;20044;-54
2023/04/05 01:46:57;;;;;;;7.07;4.35;;;1.00;99.90;;;;;;5007860;28;20124;-55
2023/04/05 01:49:23;;;;;;;7.13;4.25;;;1.00;99.90;;;;;;5009928;28;20042;-55
2023/04/05 01:51:49;;;;;;;7.20;4.28;;;0.90;99.90;;;;;;5007093;28;20049;-54
2023/04/05 01:54:15;;;;;;;5.45;3.95;;;0.90;99.90;;;;;;5001662;28;20446;-54
2023/04/05 01:56:40;;;;;;;7.20;4.43;;;0.80;99.90;;;;;;5001217;28;20053;-53
2023/04/05 01:59:06;;;;;;;7.22;4.57;;;0.80;99.90;;;;;;5005925;28;20042;-55
2023/04/05 02:01:32;;;;;;;6.72;4.40;;;0.80;99.90;;;;;;5006841;28;20046;-55
2023/04/05 02:03:58;;;;;;;10.32;4.85;;;0.70;99.90;;;;;;4995851;28;20052;-56
2023/04/05 02:06:25;;;;;;;7.47;4.38;;;0.70;99.90;;;;;;5010720;28;20046;-53
2023/04/05 02:08:50;;;;;;;9.38;4.72;;;0.60;99.90;;;;;;5010414;28;20046;-55
2023/04/05 02:11:16;;;;;;;7.20;4.78;;;0.60;99.90;;;;;;5005819;28;24589;-53
2023/04/05 02:13:42;;;;;;;7.28;4.68;;;0.60;99.90;;;;;;4993067;28;20051;-52
2023/04/05 02:16:07;;;;;;;6.60;4.50;;;0.60;99.90;;;;;;5009984;28;20057;-56
2023/04/05 02:18:33;;;;;;;8.68;4.65;;;0.50;99.90;;;;;;5014205;28;20037;-54
2023/04/05 02:21:09;;;;;;;6.97;4.60;;;0.50;99.90;;;;;;5011685;28;20072;-53
2023/04/05 02:23:35;;;;;;;10.50;5.00;;;0.50;99.90;;;;;;4997281;28;20116;-52
2023/04/05 02:26:01;;;;;;;6.47;4.35;;;0.50;99.90;;;;;;5011567;28;20492;-56
2023/04/05 02:28:27;;;;;;;8.60;4.53;;;0.50;99.90;;;;;;4994520;28;20044;-52
2023/04/05 02:30:54;;;;;;;6.03;4.93;;;0.40;99.90;;;;;;5010793;28;20119;-52
2023/04/05 02:33:21;;;;;;;8.25;4.60;;;0.50;99.90;;;;;;5011898;28;20104;-53
2023/04/05 02:35:49;;;;;;;6.07;4.47;;;0.40;99.90;;;;;;5011700;28;20503;-54
2023/04/05 02:38:15;;;;;;;7.07;4.72;;;0.40;99.90;;;;;;5009166;28;20049;-54
2023/04/05 02:40:40;;;;;;;7.78;4.75;;;0.30;99.90;;;;;;4993965;28;20400;-54
2023/04/05 02:43:06;;;;;;;6.50;4.13;;;0.30;99.90;;;;;;5009405;28;20559;-54
2023/04/05 02:45:32;;;;;;;8.93;5.07;;;0.30;99.90;;;;;;5006867;28;20145;-54
2023/04/05 02:47:58;;;;;;;6.63;4.40;;;0.30;99.90;;;;;;5001467;28;20041;-53
2023/04/05 02:50:24;;;;;;;8.07;5.10;;;0.30;99.90;;;;;;5008407;28;20053;-53
2023/04/05 02:52:50;;;;;;;10.20;5.13;;;0.20;99.90;;;;;;5008847;28;20542;-53
2023/04/05 02:55:16;;;;;;;8.85;5.55;;;0.20;99.90;;;;;;5007509;28;20187;-56
2023/04/05 02:57:43;;;;;;;8.98;5.50;;;0.20;99.90;;;;;;5011841;28;20037;-55
2023/04/05 03:00:10;;;;;;;10.70;5.40;;;0.20;99.90;;;;;;5007162;28;20602;-54
2023/04/05 03:02:38;;;;;;;7.75;4.90;;;0.20;99.90;;;;;;4990421;28;20397;-52
2023/04/05 03:05:04;;;;;;;10.27;4.82;;;0.10;99.90;;;;;;5007903;28;20096;-52
2023/04/05 03:07:31;;;;;;;7.28;4.75;;;0.10;99.90;;;;;;5008934;28;20072;-53
2023/04/05 03:09:58;;;;;;;6.82;4.07;;;0.10;99.90;;;;;;5003480;28;20045;-53
2023/04/05 03:12:24;;;;;;;7.97;4.97;;;0.10;99.90;;;;;;4984120;28;20056;-52
2023/04/05 03:14:50;;;;;;;7.43;4.85;;;0.10;99.90;;;;;;5002757;28;20124;-53
2023/04/05 03:17:15;;;;;;;8.63;5.32;;;0.00;99.90;;;;;;5006801;28;20513;-55
2023/04/05 03:19:41;;;;;;;9.90;5.18;;;0.00;99.90;;;;;;5008336;28;20045;-55
2023/04/05 03:22:07;;;;;;;7.57;5.10;;;0.00;99.90;;;;;;5008006;28;20045;-53
2023/04/05 03:24:33;;;;;;;8.85;5.18;;;0.00;99.90;;;;;;5002434;28;20060;-52
2023/04/05 03:27:04;;;;;;;9.23;5.57;;;-0.10;99.90;;;;;;5008775;28;20042;-54
2023/04/05 03:29:30;;;;;;;10.63;6.00;;;-0.10;99.90;;;;;;5007652;28;20046;-52
2023/04/05 03:31:58;;;;;;;9.40;5.97;;;-0.10;99.90;;;;;;5004360;28;20057;-56
2023/04/05 03:34:27;;;;;;;8.77;6.18;;;-0.10;99.90;;;;;;5008261;28;24094;-53
2023/04/05 03:36:56;;;;;;;16.17;6.72;;;-0.10;99.90;;;;;;5006556;28;20135;-53
2023/04/05 03:39:22;;;;;;;11.10;6.63;;;-0.20;99.90;;;;;;4989234;28;20128;-53
2023/04/05 03:41:47;;;;;;;12.40;6.93;;;-0.20;99.90;;;;;;5001819;28;20049;-55
2023/04/05 03:44:13;;;;;;;10.82;6.53;;;-0.20;99.90;;;;;;5007208;28;20574;-52
2023/04/05 03:46:39;;;;;;;12.90;7.38;;;-0.20;99.90;;;;;;5006101;28;20037;-51
2023/04/05 03:49:06;;;;;;;14.45;8.05;;;-0.30;99.90;;;;;;4990808;28;20070;-53
2023/04/05 03:51:32;;;;;;;12.98;7.93;;;-0.30;99.90;;;;;;5004487;28;20058;-52
2023/04/05 03:53:58;;;;;;;13.38;8.40;;;-0.30;99.90;;;;;;5006039;28;20439;-54
2023/04/05 03:56:24;;;;;;;13.68;8.15;;;-0.30;99.90;;;;;;5006928;28;20038;-55
2023/04/05 03:58:52;;;;;;;13.65;8.23;;;-0.30;99.90;;;;;;5008486;28;20097;-53
2023/04/05 04:01:17;;;;;;;12.88;7.78;;;-0.30;99.90;;;;;;5008638;28;20409;-55
2023/04/05 04:03:43;;;;;;;13.30;8.15;;;-0.20;99.90;;;;;;5004909;28;20070;-53
2023/04/05 04:06:09;;;;;;;13.52;7.88;;;-0.30;99.90;;;;;;5005847;28;20420;-51
2023/04/05 04:08:35;;;;;;;15.52;8.98;;;-0.30;99.90;;;;;;5003632;28;20025;-51
2023/04/05 04:11:00;;;;;;;16.02;8.38;;;-0.30;99.90;;;;;;5003656;28;20443;-51
2023/04/05 04:13:26;;;;;;;13.38;8.60;;;-0.30;99.90;;;;;;5003330;28;20523;-52
2023/04/05 04:15:52;;;;;;;16.50;8.85;;;-0.30;99.90;;;;;;4990454;28;20194;-53
2023/04/05 04:18:17;;;;;;;15.75;8.23;;;-0.30;99.90;;;;;;5003466;28;20072;-54
2023/04/05 04:20:43;;;;;;;13.57;8.30;;;-0.30;99.90;;;;;;5002299;28;20041;-54
2023/04/05 04:23:09;;;;;;;12.18;8.25;;;-0.30;99.90;;;;;;5006965;28;20118;-55
2023/04/05 04:25:36;;;;;;;14.07;8.77;;;-0.30;99.90;;;;;;5000117;28;20507;-55
2023/04/05 04:28:06;;;;;;;14.20;8.68;;;-0.40;99.90;;;;;;5002072;28;20148;-52
2023/04/05 04:30:33;;;;;;;16.63;8.90;;;-0.40;99.90;;;;;;4999196;28;20604;-51
2023/04/05 04:33:03;;;;;;;17.70;10.77;;;-0.40;99.90;;;;;;4998721;28;20142;-55
2023/04/05 04:35:33;;;;;;;17.17;10.15;;;-0.40;99.90;;;;;;5001719;28;20136;-55
2023/04/05 04:38:01;;;;;;;16.60;9.98;;;-0.40;99.90;;;;;;5001510;28;20492;-52
2023/04/05 04:40:40;;;;;;;15.65;9.65;;;-0.40;99.90;;;;;;5002123;28;20331;-54
2023/04/05 04:43:15;;;;;;;16.40;10.40;;;-0.40;99.90;;;;;;5001068;28;20050;-52
2023/04/05 04:45:48;;;;;;;20.60;11.18;;;-0.40;99.90;;;;;;5005179;28;20041;-54
2023/04/05 04:48:15;;;;;;;;;;;-0.40;99.90;;;;;;5007836;28;20574;-53
2023/04/05 04:50:43;;;;;;;19.58;10.65;;;-0.40;99.90;;;;;;5002207;28;19991;-53
2023/04/05 04:53:08;;;;;;;17.95;10.88;;;-0.40;99.90;;;;;;5009224;28;20045;-55
2023/04/05 04:55:35;;;;;;;19.10;11.02;;;-0.40;99.90;;;;;;5007938;28;20037;-54
2023/04/05 04:58:08;;;;;;;16.15;11.38;;;-0.40;99.90;;;;;;5008468;28;20073;-54
2023/04/05 05:00:35;;;;;;;17.83;10.80;;;-0.30;99.90;;;;;;5001880;28;20384;-54
2023/04/05 05:03:01;;;;;;;20.70;10.85;;;-0.40;99.90;;;;;;4997081;28;20049;-54
2023/04/05 05:05:27;;;;;;;19.33;11.35;;;-0.40;99.90;;;;;;5001834;28;21353;-52
2023/04/05 05:07:54;;;;;;;18.25;10.70;;;-0.40;99.90;;;;;;5002572;28;20049;-53
2023/04/05 05:10:20;;;;;;;17.15;10.15;;;-0.40;99.90;;;;;;4995541;28;20132;-53
2023/04/05 05:12:47;;;;;;;16.88;10.38;;;-0.40;99.90;;;;;;4995942;28;20128;-53
2023/04/05 05:15:13;;;;;;;16.33;11.63;;;-0.40;99.90;;;;;;4998206;28;20061;-56
2023/04/05 05:17:39;;;;;;;16.13;10.50;;;-0.40;99.90;;;;;;5000376;28;20412;-52
2023/04/05 05:20:09;;;;;;;20.38;11.35;;;-0.40;99.90;;;;;;5006554;28;20073;-52
2023/04/05 05:22:36;;;;;;;17.80;11.02;;;-0.40;99.90;;;;;;5003835;28;20074;-55
2023/04/05 05:25:06;;;;;;;17.10;11.27;;;-0.40;99.90;;;;;;5002932;28;20053;-55
2023/04/05 05:27:34;;;;;;;17.52;10.82;;;-0.50;99.90;;;;;;5003302;28;20038;-51
2023/04/05 05:30:00;;;;;;;16.60;10.38;;;-0.40;99.90;;;;;;5006184;28;20492;-52
2023/04/05 05:32:26;;;;;;;18.33;10.43;;;-0.40;99.90;;;;;;5003628;28;20076;-52
2023/04/05 05:34:52;;;;;;;15.25;9.30;;;-0.40;99.90;;;;;;5003551;28;20576;-51
2023/04/05 05:37:18;;;;;;;15.82;9.25;;;-0.40;99.90;;;;;;5006493;28;20038;-54
2023/04/05 05:39:44;;;;;;;16.15;9.50;;;-0.50;99.90;;;;;;4999108;28;20049;-55
2023/04/05 05:42:10;;;;;;;20.17;9.82;;;-0.50;99.90;;;;;;5000392;28;20037;-55
2023/04/05 05:44:36;;;;;;;15.13;9.20;;;-0.50;99.90;;;;;;4999805;28;20139;-54
2023/04/05 05:47:02;;;;;;;18.38;9.85;;;-0.50;99.90;;;;;;4987006;28;20056;-52
2023/04/05 05:49:28;;;;;;;16.65;9.77;;;-0.50;99.90;;;;;;4984705;28;20077;-55
2023/04/05 05:51:53;;;;;;;17.20;10.20;;;-0.50;99.90;;;;;;5001684;28;20171;-56
2023/04/05 05:54:20;;;;;;;14.98;9.95;;;-0.50;99.90;;;;;;4985596;28;20069;-55
2023/04/05 05:56:45;;;;;;;15.48;10.15;;;-0.50;99.90;;;;;;5005434;28;20054;-54
2023/04/05 05:59:11;;;;;;;15.48;10.15;;;-0.50;99.90;;;;;;4975360;28;20503;-53
2023/04/05 06:01:37;;;;;;;19.15;11.30;;;-0.50;99.90;;;;;;5001462;28;20133;-54
2023/04/05 06:04:06;;;;;;;18.38;11.15;;;-0.40;99.90;;;;;;5003975;28;20122;-52
2023/04/05 06:06:32;;;;;;;15.95;10.60;;;-0.40;99.90;;;;;;4999218;28;20046;-53
2023/04/05 06:08:58;;;;;;;16.55;10.25;;;-0.40;99.90;;;;;;4985505;28;20053;-52
2023/04/05 06:11:25;;;;;;;21.00;12.00;;;-0.40;99.90;;;;;;5001756;28;20049;-52
2023/04/05 06:13:51;;;;;;;20.48;12.85;;;-0.30;99.90;;;;;;5007655;28;20072;-55
2023/04/05 06:16:17;;;;;;;18.45;13.68;;;-0.20;99.90;;;;;;4979193;28;20124;-52
2023/04/05 06:18:43;;;;;;;22.83;14.32;;;-0.20;99.90;;;;;;5011718;28;20523;-53
2023/04/05 06:21:09;;;;;;;21.48;13.18;;;-0.10;99.90;;;;;;5014104;28;20038;-54
2023/04/05 06:23:35;;;;;;;22.27;13.40;;;0.00;99.90;;;;;;5010697;28;20061;-55
2023/04/05 06:26:01;;;;;;;24.77;14.10;;;0.10;99.90;;;;;;4975552;28;20116;-54
2023/04/05 06:28:27;;;;;;;22.33;13.52;;;0.20;99.90;;;;;;4991614;28;20100;-55
2023/04/05 06:30:57;;;;;;;22.63;13.75;;;0.30;99.90;;;;;;5003040;28;20488;-52
2023/04/05 06:33:23;;;;;;;18.75;13.95;;;0.40;99.90;;;;;;5005885;28;20045;-53
2023/04/05 06:35:49;;;;;;;20.38;13.25;;;0.50;99.90;;;;;;5007134;28;20061;-54
2023/04/05 06:38:15;;;;;;;22.73;13.30;;;0.60;99.90;;;;;;5005300;28;20056;-53
2023/04/05 06:40:40;;;;;;;22.48;12.85;;;0.60;99.90;;;;;;5005125;28;20129;-54
2023/04/05 06:43:06;;;;;;;23.00;12.80;;;0.70;99.90;;;;;;4992341;28;20049;-54
2023/04/05 06:45:32;;;;;;;21.23;13.18;;;0.80;99.90;;;;;;5005645;28;20255;-54
2023/04/05 06:47:58;;;;;;;21.48;13.45;;;0.80;99.90;;;;;;4988361;28;20058;-55
2023/04/05 06:50:23;;;;;;;19.27;12.90;;;0.90;99.90;;;;;;5008407;28;20053;-52
2023/04/05 06:52:49;;;;;;;19.73;12.73;;;1.00;99.90;;;;;;5007192;28;20496;-53
2023/04/05 06:55:15;;;;;;;18.65;12.73;;;1.10;99.90;;;;;;4988082;28;20534;-53
2023/04/05 06:57:40;;;;;;;23.02;12.60;;;1.20;99.90;;;;;;5007958;28;20103;-53
2023/04/05 07:00:16;;;;;;;20.35;12.70;;;1.20;99.90;;;;;;4991192;28;20455;-56
2023/04/05 07:02:42;;;;;;;21.50;12.77;;;1.30;99.90;;;;;;5008901;28;20058;-55
2023/04/05 07:05:07;;;;;;;18.55;11.55;;;1.40;99.90;;;;;;4994087;28;20057;-55
2023/04/05 07:07:42;;;;;;;18.38;12.48;;;1.40;99.90;;;;;;4997483;28;20064;-55
2023/04/05 07:10:08;;;;;;;19.65;12.35;;;1.50;99.90;;;;;;5006830;28;20053;-54
2023/04/05 07:12:34;;;;;;;20.10;11.88;;;1.60;99.90;;;;;;4991934;28;20492;-54
2023/04/05 07:15:00;;;;;;;18.17;12.48;;;1.70;99.90;;;;;;5009666;28;20081;-56
2023/04/05 07:17:26;;;;;;;17.38;12.23;;;1.70;99.90;;;;;;4998770;28;20053;-56
2023/04/05 07:19:51;;;;;;;16.90;11.55;;;1.80;99.90;;;;;;5007630;28;20076;-55
2023/04/05 07:22:17;;;;;;;19.17;11.98;;;1.90;99.90;;;;;;5007779;28;20045;-52
2023/04/05 07:24:44;;;;;;;18.60;12.30;;;2.00;99.90;;;;;;5006348;28;20041;-53
2023/04/05 07:27:10;;;;;;;17.17;11.73;;;2.10;99.90;;;;;;4984299;28;20038;-55
2023/04/05 07:29:39;;;;;;;20.00;11.98;;;2.20;99.90;;;;;;4988212;28;20210;-52
2023/04/05 07:32:06;;;;;;;19.30;11.75;;;2.30;99.90;;;;;;5006390;28;20045;-52
2023/04/05 07:34:33;;;;;;;24.27;11.55;;;2.40;99.90;;;;;;5010914;28;20050;-52
2023/04/05 07:36:58;;;;;;;17.73;12.07;;;2.50;99.90;;;;;;5008485;28;20444;-53
2023/04/05 07:39:24;;;;;;;17.02;11.43;;;2.60;99.90;;;;;;4980678;28;20045;-56
2023/04/05 07:41:50;;;;;;;17.75;11.27;;;2.80;99.90;;;;;;5004136;28;20484;-56
2023/04/05 07:44:16;;;;;;;19.35;11.98;;;3.00;99.90;;;;;;5010693;28;20046;-54
2023/04/05 07:46:43;;;;;;;19.73;11.98;;;3.10;99.90;;;;;;5011328;28;20460;-54
2023/04/05 07:49:10;;;;;;;15.48;10.85;;;3.20;99.90;;;;;;5013552;28;20321;-53
2023/04/05 07:51:37;;;;;;;16.90;11.05;;;3.50;99.90;;;;;;5010955;28;20042;-53
2023/04/05 07:54:06;;;;;;;17.38;11.20;;;3.50;99.90;;;;;;5016926;28;20525;-55
2023/04/05 07:56:32;;;;;;;18.95;10.73;;;3.70;99.90;;;;;;5015622;28;20116;-56
2023/04/05 07:58:58;;;;;;;19.85;12.02;;;3.80;99.90;;;;;;5016405;28;20163;-54
2023/04/05 08:01:26;;;;;;;15.15;10.38;;;4.00;99.90;;;;;;5013412;28;20128;-55
2023/04/05 08:03:58;;;;;;;15.63;10.40;;;4.10;99.90;;;;;;5014316;28;20445;-54
2023/04/05 08:06:25;;;;;;;17.63;10.48;;;4.30;99.90;;;;;;5016383;28;20041;-52
2023/04/05 08:08:51;;;;;;;16.20;10.52;;;4.50;99.90;;;;;;4997975;28;20038;-55
2023/04/05 08:11:17;;;;;;;13.02;9.00;;;4.60;99.90;;;;;;4996928;28;20049;-56
2023/04/05 08:13:43;;;;;;;14.38;10.05;;;4.70;99.90;;;;;;5014746;28;20121;-55
2023/04/05 08:16:10;;;;;;;16.15;9.98;;;4.90;99.90;;;;;;5016228;28;20045;-55
2023/04/05 08:18:36;;;;;;;16.83;9.43;;;5.00;99.90;;;;;;5014917;28;20116;-53
2023/04/05 08:21:02;;;;;;;17.70;9.77;;;5.10;99.90;;;;;;5018101;28;20046;-54
2023/04/05 08:23:28;;;;;;;14.85;9.63;;;5.20;99.90;;;;;;4997734;28;20038;-52
2023/04/05 08:25:54;;;;;;;17.90;9.70;;;5.40;99.90;;;;;;5014701;28;20038;-52
2023/04/05 08:28:20;;;;;;;13.30;9.40;;;5.50;99.90;;;;;;5012996;28;20052;-54
2023/04/05 08:30:46;;;;;;;13.43;9.18;;;5.60;99.90;;;;;;5016438;28;20158;-56
2023/04/05 08:33:13;;;;;;;14.02;9.15;;;5.70;99.90;;;;;;5014372;28;20108;-53
2023/04/05 08:35:39;;;;;;;12.90;8.13;;;5.90;99.90;;;;;;5016786;28;20504;-52
2023/04/05 08:38:08;;;;;;;17.85;9.32;;;6.00;99.90;;;;;;5015288;28;20380;-53
2023/04/05 08:40:43;;;;;;;16.27;9.43;;;6.20;99.90;;;;;;5013833;28;20036;-54
2023/04/05 08:43:27;;;;;;;16.88;8.85;;;6.30;99.90;;;;;;5013185;28;20045;-53
2023/04/05 08:45:53;;;;;;;14.85;8.70;;;6.40;99.90;;;;;;4998623;28;20523;-54
2023/04/05 08:48:20;;;;;;;15.98;8.48;;;6.60;99.90;;;;;;5014722;28;20049;-55
2023/04/05 08:50:52;;;;;;;11.50;7.55;;;6.70;99.90;;;;;;5014645;28;20151;-55
2023/04/05 08:53:19;;;;;;;11.35;6.97;;;6.80;99.90;;;;;;5012458;28;20518;-55
2023/04/05 08:55:53;;;;;;;13.02;7.63;;;6.90;99.90;;;;;;5008733;28;20047;-52
2023/04/05 08:58:21;;;;;;;12.77;7.57;;;7.10;99.90;;;;;;5012322;28;20041;-54
2023/04/05 09:00:47;;;;;;;12.13;7.50;;;7.10;99.90;;;;;;5016723;28;20099;-53
2023/04/05 09:03:30;;;;;;;12.48;7.50;;;7.20;99.90;;;;;;5015659;28;20045;-56
2023/04/05 09:05:58;;;;;;;12.80;7.07;;;7.30;99.90;;;;;;5013667;28;20037;-54
2023/04/05 09:08:24;;;;;;;9.85;6.80;;;7.50;99.90;;;;;;4999337;28;20037;-55
2023/04/05 09:10:50;;;;;;;14.57;7.50;;;7.60;99.90;;;;;;5010739;28;20038;-55
2023/04/05 09:13:16;;;;;;;10.75;6.60;;;7.70;99.80;;;;;;5011748;28;20042;-55
2023/04/05 09:15:43;;;;;;;13.80;7.13;;;7.90;99.50;;;;;;4996232;28;20506;-55
2023/04/05 09:18:09;;;;;;;8.95;6.03;;;8.00;99.10;;;;;;5006635;28;20103;-52
2023/04/05 09:20:34;;;;;;;10.60;6.22;;;8.10;98.70;;;;;;5015905;28;20042;-55
2023/04/05 09:23:00;;;;;;;13.32;6.53;;;8.30;98.40;;;;;;5012758;28;20497;-54
2023/04/05 09:25:39;;;;;;;10.18;6.40;;;8.40;98.60;;;;;;5012576;28;20026;-52
2023/04/05 09:28:09;;;;;;;10.73;5.38;;;8.50;98.00;;;;;;5011427;28;20069;-55
2023/04/05 09:30:36;;;;;;;9.07;5.75;;;8.70;97.40;;;;;;5015657;28;20041;-53
2023/04/05 09:33:03;;;;;;;8.82;5.97;;;8.70;96.30;;;;;;5013890;28;20052;-52
2023/04/05 09:35:31;;;;;;;9.65;5.82;;;8.90;96.20;;;;;;5013568;28;20416;-53
2023/04/05 09:37:58;;;;;;;9.70;5.28;;;9.00;95.80;;;;;;5010953;28;20133;-53
2023/04/05 09:40:50;;;;;;;8.23;5.00;;;9.10;94.80;;;;;;4993448;28;20054;-52
2023/04/05 09:43:35;;;;;;;8.57;4.90;;;9.20;94.70;;;;;;4991584;28;20056;-53
2023/04/05 09:46:00;;;;;;;9.70;4.88;;;9.40;94.00;;;;;;5011676;28;20046;-52
2023/04/05 09:48:48;;;;;;;6.82;4.82;;;9.50;93.30;;;;;;5014880;28;20112;-53
2023/04/05 09:51:15;;;;;;;9.55;4.28;;;9.60;92.40;;;;;;5014859;28;20045;-54
2023/04/05 09:54:08;;;;;;;8.60;4.03;;;9.70;91.80;;;;;;5016081;28;20112;-56
2023/04/05 09:56:38;;;;;;;7.82;3.75;;;9.80;90.90;;;;;;5016711;28;20041;-52
2023/04/05 09:59:10;;;;;;;6.97;4.15;;;9.90;90.80;;;;;;4995175;28;20100;-54
2023/04/05 10:01:36;;;;;;;8.20;3.85;;;10.00;88.30;;;;;;4999040;28;20053;-56
2023/04/05 10:04:02;;;;;;;5.95;3.78;;;10.10;86.30;;;;;;5000663;28;20057;-54
2023/04/05 10:06:57;;;;;;;6.45;3.88;;;10.20;85.60;;;;;;5017411;28;20038;-53
2023/04/05 10:09:23;;;;;;;6.20;4.25;;;10.30;86.00;;;;;;5007222;28;20041;-53
2023/04/05 10:11:50;;;;;;;11.23;4.55;;;10.40;83.50;;;;;;5019015;28;20124;-56
2023/04/05 10:14:15;;;;;;;7.72;3.83;;;10.50;83.40;;;;;;5016069;28;20081;-56
2023/04/05 10:16:58;;;;;;;7.40;4.35;;;10.60;83.30;;;;;;5015757;28;20504;-56
2023/04/05 10:19:31;;;;;;;8.13;4.28;;;10.70;80.10;;;;;;5018218;28;20591;-54
2023/04/05 10:22:01;;;;;;;9.00;4.50;;;10.90;81.30;;;;;;5000720;28;20086;-56
2023/04/05 10:24:35;;;;;;;6.13;4.25;;;10.90;79.60;;;;;;5019370;28;20038;-56
2023/04/05 10:27:09;;;;;;;8.63;4.18;;;11.00;79.00;;;;;;5001820;28;20040;-55
2023/04/05 10:29:49;;;;;;;7.13;4.32;;;11.10;78.60;;;;;;5014556;28;20503;-56
2023/04/05 10:32:29;;;;;;;8.10;4.60;;;11.20;76.80;;;;;;4998666;28;20072;-55
2023/04/05 10:35:08;;;;;;;8.18;4.25;;;11.20;76.20;;;;;;5016271;28;20072;-57
2023/04/05 10:37:52;;;;;;;7.53;4.55;;;11.30;75.60;;;;;;5016997;28;20464;-56
2023/04/05 10:40:21;;;;;;;6.88;5.03;;;11.40;76.60;;;;;;5013525;28;20038;-54
2023/04/05 10:42:48;;;;;;;8.70;5.65;;;11.50;76.60;;;;;;5015634;28;20037;-56
2023/04/05 10:45:18;;;;;;;11.40;5.82;;;11.70;75.90;;;;;;5011853;28;20033;-53
2023/04/05 10:47:53;;;;;;;7.78;4.55;;;11.70;74.80;;;;;;5012420;28;20042;-53
2023/04/05 10:50:24;;;;;;;8.63;5.40;;;11.80;74.00;;;;;;5013790;28;20128;-57
2023/04/05 10:52:53;;;;;;;8.52;5.90;;;11.60;71.00;;;;;;5011167;28;20045;-56
2023/04/05 10:55:20;;;;;;;7.47;5.28;;;11.50;69.80;;;;;;5004225;28;20668;-56
2023/04/05 10:57:47;;;;;;;9.20;5.93;;;11.40;70.00;;;;;;4997584;28;20070;-55
2023/04/05 11:00:15;;;;;;;7.32;5.28;;;11.40;70.40;;;;;;5010987;28;20059;-53
2023/04/05 11:02:41;;;;;;;8.02;5.55;;;11.40;69.80;;;;;;4994517;28;20064;-54
2023/04/05 11:05:30;;;;;;;8.63;5.57;;;11.40;69.90;;;;;;5008153;28;20181;-54
2023/04/05 11:08:01;;;;;;;12.02;6.32;;;11.50;69.10;;;;;;4999504;28;20061;-56
2023/04/05 11:10:28;;;;;;;8.13;5.25;;;11.50;68.90;;;;;;5009929;28;20176;-53
2023/04/05 11:12:57;;;;;;;11.57;5.97;;;11.60;68.30;;;;;;5009199;28;20049;-54
2023/04/05 11:15:28;;;;;;;8.52;5.78;;;11.70;68.50;;;;;;5007773;28;20068;-53
2023/04/05 11:18:15;;;;;;;8.00;5.60;;;11.90;67.40;;;;;;5006107;28;20099;-54
2023/04/05 11:20:54;;;;;;;8.65;5.53;;;12.10;67.30;;;;;;5008508;28;20125;-57
2023/04/05 11:23:22;;;;;;;7.47;5.28;;;12.20;67.50;;;;;;5003973;28;20073;-53
2023/04/05 11:26:01;;;;;;;7.53;5.00;;;12.40;66.10;;;;;;5012991;28;20135;-56
2023/04/05 11:28:39;;;;;;;7.00;4.78;;;12.40;64.70;;;;;;5012283;28;20038;-57
2023/04/05 11:31:18;;;;;;;8.40;4.88;;;12.50;64.80;;;;;;4993623;28;20091;-56
2023/04/05 11:33:44;;;;;;;6.47;5.00;;;12.70;64.80;;;;;;5016470;28;20038;-57
2023/04/05 11:36:11;;;;;;;7.85;5.50;;;12.80;64.00;;;;;;5015498;28;20037;-54
2023/04/05 11:38:39;;;;;;;9.05;5.25;;;12.90;63.00;;;;;;4989527;28;20064;-54
2023/04/05 11:41:16;;;;;;;7.65;5.25;;;12.80;63.00;;;;;;4987393;28;20053;-57
2023/04/05 11:43:46;;;;;;;7.63;4.82;;;12.90;64.00;;;;;;5014217;28;20558;-54
2023/04/05 11:46:15;;;;;;;8.23;4.78;;;13.20;64.90;;;;;;5009388;28;20804;-57
2023/04/05 11:48:43;;;;;;;9.55;5.85;;;13.30;65.10;;;;;;5008291;28;20037;-55
2023/04/05 11:51:09;;;;;;;8.55;4.68;;;13.60;65.00;;;;;;5006866;28;20598;-58
2023/04/05 11:53:36;;;;;;;6.22;4.68;;;13.70;62.00;;;;;;5012225;28;20042;-58
2023/04/05 11:56:11;;;;;;;10.93;5.38;;;13.70;62.30;;;;;;5001417;28;20081;-57
2023/04/05 11:58:37;;;;;;;7.05;4.68;;;13.90;62.70;;;;;;5005481;28;20079;-57
2023/04/05 12:01:06;;;;;;;7.13;4.88;;;14.10;62.10;;;;;;5009514;28;20056;-54
2023/04/05 12:03:32;;;;;;;7.55;4.93;;;14.10;61.20;;;;;;4993452;28;20058;-58
2023/04/05 12:06:00;;;;;;;5.35;4.30;;;14.30;60.90;;;;;;5001088;28;20041;-54
2023/04/05 12:08:39;;;;;;;8.48;4.63;;;14.40;60.10;;;;;;4996787;28;20125;-57
2023/04/05 12:11:10;;;;;;;8.43;4.80;;;14.40;60.30;;;;;;4992531;28;20096;-56
2023/04/05 12:13:36;;;;;;;5.85;4.53;;;14.50;60.00;;;;;;5015488;28;20034;-57
2023/04/05 12:16:04;;;;;;;9.45;4.93;;;14.60;60.30;;;;;;5012536;28;20037;-55
2023/04/05 12:18:35;;;;;;;8.43;4.53;;;14.70;60.00;;;;;;5013069;28;20404;-58
2023/04/05 12:21:06;;;;;;;6.07;4.43;;;14.80;59.90;;;;;;5011698;28;20072;-58
2023/04/05 12:23:32;;;;;;;7.40;4.85;;;14.90;60.30;;;;;;5001454;28;20087;-57
2023/04/05 12:25:58;;;;;;;5.32;4.10;;;15.20;59.80;;;;;;5005071;28;20073;-56
2023/04/05 12:28:24;;;;;;;7.20;4.80;;;15.30;59.00;;;;;;5013967;28;20053;-56
2023/04/05 12:30:52;;;;;;;6.72;4.32;;;15.30;58.20;;;;;;4999753;28;20046;-58
2023/04/05 12:33:32;;;;;;;7.90;4.45;;;15.40;57.60;;;;;;5014406;28;20489;-57
2023/04/05 12:36:03;;;;;;;10.63;4.63;;;15.40;55.50;;;;;;5008244;28;20658;-56
2023/04/05 12:38:29;;;;;;;6.13;4.25;;;15.50;57.00;;;;;;5009276;28;20416;-58
2023/04/05 12:41:01;;;;;;;8.75;4.57;;;15.60;56.10;;;;;;5013204;28;20041;-58
2023/04/05 12:43:40;;;;;;;7.88;3.88;;;15.70;55.60;;;;;;5005854;28;20537;-58
2023/04/05 12:46:19;;;;;;;6.70;4.03;;;15.80;56.40;;;;;;5011684;28;20049;-56
2023/04/05 12:48:49;;;;;;;7.88;4.50;;;16.00;56.40;;;;;;5013522;28;20072;-58
2023/04/05 12:51:16;;;;;;;5.65;3.90;;;16.20;56.40;;;;;;4982824;28;20102;-56
2023/04/05 12:53:48;;;;;;;6.72;4.30;;;16.20;54.90;;;;;;5007319;28;20037;-58